sensor_id;sensor_type;location;lat;lon;timestamp;P1;durP1;ratioP1;P2;durP2;ratioP2
59512;SDS011;45330;51.634;5.562;2022-07-06T00:01:26;10.52;;;3.28;;
59512;SDS011;45330;51.634;5.562;2022-07-06T00:03:51;7.65;;;3.00;;
59512;SDS011;45330;51.634;5.562;2022-07-06T00:06:16;10.27;;;3.13;;
59512;SDS011;45330;51.634;5.562;2022-07-06T00:08:42;7.70;;;3.30;;
59512;SDS011;45330;51.634;5.562;2022-07-06T00:11:08;10.52;;;3.22;;
59512;SDS011;45330;51.634;5.562;2022-07-06T00:13:34;8.10;;;3.30;;
59512;SDS011;45330;51.634;5.562;2022-07-06T00:16:00;9.90;;;3.50;;
59512;SDS011;45330;51.634;5.562;2022-07-06T00:18:25;6.88;;;3.03;;
59512;SDS011;45330;51.634;5.562;2022-07-06T00:20:51;11.40;;;3.53;;
59512;SDS011;45330;51.634;5.562;2022-07-06T00:23:16;8.70;;;3.30;;
59512;SDS011;45330;51.634;5.562;2022-07-06T00:25:42;10.68;;;3.58;;
59512;SDS011;45330;51.634;5.562;2022-07-06T00:28:07;10.02;;;3.63;;
59512;SDS011;45330;51.634;5.562;2022-07-06T00:30:32;8.00;;;3.50;;
59512;SDS011;45330;51.634;5.562;2022-07-06T00:32:58;11.68;;;3.58;;
59512;SDS011;45330;51.634;5.562;2022-07-06T00:35:24;7.25;;;3.17;;
59512;SDS011;45330;51.634;5.562;2022-07-06T00:37:49;11.10;;;3.10;;
59512;SDS011;45330;51.634;5.562;2022-07-06T00:40:15;10.45;;;3.30;;
59512;SDS011;45330;51.634;5.562;2022-07-06T00:45:12;12.07;;;3.30;;
59512;SDS011;45330;51.634;5.562;2022-07-06T00:47:39;8.10;;;3.45;;
59512;SDS011;45330;51.634;5.562;2022-07-06T00:50:06;8.18;;;3.17;;
59512;SDS011;45330;51.634;5.562;2022-07-06T00:52:42;9.02;;;3.40;;
59512;SDS011;45330;51.634;5.562;2022-07-06T00:55:10;8.68;;;2.92;;
59512;SDS011;45330;51.634;5.562;2022-07-06T00:57:36;7.35;;;3.10;;
59512;SDS011;45330;51.634;5.562;2022-07-06T01:00:03;10.25;;;3.08;;
59512;SDS011;45330;51.634;5.562;2022-07-06T01:02:33;11.68;;;3.50;;
59512;SDS011;45330;51.634;5.562;2022-07-06T01:04:59;9.45;;;3.40;;
59512;SDS011;45330;51.634;5.562;2022-07-06T01:07:25;8.60;;;3.20;;
59512;SDS011;45330;51.634;5.562;2022-07-06T01:09:52;7.70;;;3.60;;
59512;SDS011;45330;51.634;5.562;2022-07-06T01:12:18;12.38;;;3.60;;
59512;SDS011;45330;51.634;5.562;2022-07-06T01:14:44;8.73;;;3.80;;
59512;SDS011;45330;51.634;5.562;2022-07-06T01:17:10;9.13;;;3.50;;
59512;SDS011;45330;51.634;5.562;2022-07-06T01:19:35;9.20;;;3.83;;
59512;SDS011;45330;51.634;5.562;2022-07-06T01:22:01;9.43;;;3.70;;
59512;SDS011;45330;51.634;5.562;2022-07-06T01:24:27;8.38;;;3.40;;
59512;SDS011;45330;51.634;5.562;2022-07-06T01:26:52;8.05;;;3.15;;
59512;SDS011;45330;51.634;5.562;2022-07-06T01:29:18;8.52;;;3.40;;
59512;SDS011;45330;51.634;5.562;2022-07-06T01:31:48;12.55;;;3.47;;
59512;SDS011;45330;51.634;5.562;2022-07-06T01:34:15;9.13;;;3.30;;
59512;SDS011;45330;51.634;5.562;2022-07-06T01:36:42;12.23;;;3.50;;
59512;SDS011;45330;51.634;5.562;2022-07-06T01:39:08;10.48;;;3.50;;
59512;SDS011;45330;51.634;5.562;2022-07-06T01:41:34;11.45;;;3.33;;
59512;SDS011;45330;51.634;5.562;2022-07-06T01:43:59;11.10;;;3.30;;
59512;SDS011;45330;51.634;5.562;2022-07-06T01:46:25;9.93;;;3.40;;
59512;SDS011;45330;51.634;5.562;2022-07-06T01:48:50;7.43;;;3.00;;
59512;SDS011;45330;51.634;5.562;2022-07-06T01:51:16;10.48;;;3.30;;
59512;SDS011;45330;51.634;5.562;2022-07-06T01:53:41;9.27;;;3.50;;
59512;SDS011;45330;51.634;5.562;2022-07-06T01:56:07;9.10;;;3.20;;
59512;SDS011;45330;51.634;5.562;2022-07-06T01:58:33;6.90;;;3.33;;
59512;SDS011;45330;51.634;5.562;2022-07-06T02:00:58;11.52;;;3.72;;
59512;SDS011;45330;51.634;5.562;2022-07-06T02:03:24;11.48;;;3.80;;
59512;SDS011;45330;51.634;5.562;2022-07-06T02:05:49;10.45;;;3.33;;
59512;SDS011;45330;51.634;5.562;2022-07-06T02:08:15;9.15;;;3.42;;
59512;SDS011;45330;51.634;5.562;2022-07-06T02:10:40;9.45;;;3.63;;
59512;SDS011;45330;51.634;5.562;2022-07-06T02:13:06;12.43;;;3.90;;
59512;SDS011;45330;51.634;5.562;2022-07-06T02:15:31;12.43;;;3.97;;
59512;SDS011;45330;51.634;5.562;2022-07-06T02:17:56;13.07;;;3.83;;
59512;SDS011;45330;51.634;5.562;2022-07-06T02:20:22;14.50;;;4.00;;
59512;SDS011;45330;51.634;5.562;2022-07-06T02:22:47;9.50;;;3.55;;
59512;SDS011;45330;51.634;5.562;2022-07-06T02:25:12;9.20;;;3.35;;
59512;SDS011;45330;51.634;5.562;2022-07-06T02:27:38;9.13;;;3.22;;
59512;SDS011;45330;51.634;5.562;2022-07-06T02:30:04;10.95;;;3.47;;
59512;SDS011;45330;51.634;5.562;2022-07-06T02:32:30;11.48;;;3.70;;
59512;SDS011;45330;51.634;5.562;2022-07-06T02:34:56;10.35;;;4.00;;
59512;SDS011;45330;51.634;5.562;2022-07-06T02:37:21;11.43;;;4.07;;
59512;SDS011;45330;51.634;5.562;2022-07-06T02:39:46;9.40;;;3.63;;
59512;SDS011;45330;51.634;5.562;2022-07-06T02:42:12;10.88;;;3.50;;
59512;SDS011;45330;51.634;5.562;2022-07-06T02:44:38;14.27;;;4.10;;
59512;SDS011;45330;51.634;5.562;2022-07-06T02:47:03;8.85;;;3.78;;
59512;SDS011;45330;51.634;5.562;2022-07-06T02:49:29;9.93;;;3.67;;
59512;SDS011;45330;51.634;5.562;2022-07-06T02:51:54;11.93;;;3.80;;
59512;SDS011;45330;51.634;5.562;2022-07-06T02:54:19;11.68;;;3.92;;
59512;SDS011;45330;51.634;5.562;2022-07-06T02:56:45;12.65;;;4.50;;
59512;SDS011;45330;51.634;5.562;2022-07-06T02:59:16;12.05;;;4.38;;
59512;SDS011;45330;51.634;5.562;2022-07-06T03:01:41;13.18;;;4.65;;
59512;SDS011;45330;51.634;5.562;2022-07-06T03:04:07;10.40;;;3.85;;
59512;SDS011;45330;51.634;5.562;2022-07-06T03:06:32;12.70;;;4.80;;
59512;SDS011;45330;51.634;5.562;2022-07-06T03:08:57;12.60;;;4.65;;
59512;SDS011;45330;51.634;5.562;2022-07-06T03:11:23;13.35;;;5.00;;
59512;SDS011;45330;51.634;5.562;2022-07-06T03:13:48;13.18;;;4.75;;
59512;SDS011;45330;51.634;5.562;2022-07-06T03:16:14;11.77;;;4.45;;
59512;SDS011;45330;51.634;5.562;2022-07-06T03:18:39;14.57;;;4.97;;
59512;SDS011;45330;51.634;5.562;2022-07-06T03:21:04;15.00;;;4.80;;
59512;SDS011;45330;51.634;5.562;2022-07-06T03:23:30;16.40;;;5.25;;
59512;SDS011;45330;51.634;5.562;2022-07-06T03:25:56;13.38;;;4.85;;
59512;SDS011;45330;51.634;5.562;2022-07-06T03:28:21;12.77;;;4.88;;
59512;SDS011;45330;51.634;5.562;2022-07-06T03:30:47;15.32;;;5.30;;
59512;SDS011;45330;51.634;5.562;2022-07-06T03:33:12;11.90;;;5.22;;
59512;SDS011;45330;51.634;5.562;2022-07-06T03:35:37;15.52;;;5.30;;
59512;SDS011;45330;51.634;5.562;2022-07-06T03:38:03;15.00;;;5.35;;
59512;SDS011;45330;51.634;5.562;2022-07-06T03:40:28;15.15;;;5.72;;
59512;SDS011;45330;51.634;5.562;2022-07-06T03:42:53;17.15;;;5.93;;
59512;SDS011;45330;51.634;5.562;2022-07-06T03:45:19;13.70;;;5.50;;
59512;SDS011;45330;51.634;5.562;2022-07-06T03:47:44;13.98;;;5.30;;
59512;SDS011;45330;51.634;5.562;2022-07-06T03:50:10;16.27;;;5.30;;
59512;SDS011;45330;51.634;5.562;2022-07-06T03:52:35;13.65;;;5.40;;
59512;SDS011;45330;51.634;5.562;2022-07-06T03:55:04;13.70;;;5.50;;
59512;SDS011;45330;51.634;5.562;2022-07-06T03:57:32;15.18;;;5.85;;
59512;SDS011;45330;51.634;5.562;2022-07-06T03:59:57;13.02;;;5.07;;
59512;SDS011;45330;51.634;5.562;2022-07-06T04:02:23;15.82;;;5.60;;
59512;SDS011;45330;51.634;5.562;2022-07-06T04:04:48;12.90;;;5.10;;
59512;SDS011;45330;51.634;5.562;2022-07-06T04:07:13;15.23;;;5.40;;
59512;SDS011;45330;51.634;5.562;2022-07-06T04:09:40;13.73;;;5.20;;
59512;SDS011;45330;51.634;5.562;2022-07-06T04:12:05;12.82;;;5.20;;
59512;SDS011;45330;51.634;5.562;2022-07-06T04:14:31;14.98;;;5.40;;
59512;SDS011;45330;51.634;5.562;2022-07-06T04:16:56;15.77;;;5.60;;
59512;SDS011;45330;51.634;5.562;2022-07-06T04:19:22;16.30;;;5.50;;
59512;SDS011;45330;51.634;5.562;2022-07-06T04:21:47;15.40;;;5.75;;
59512;SDS011;45330;51.634;5.562;2022-07-06T04:24:12;14.00;;;4.95;;
59512;SDS011;45330;51.634;5.562;2022-07-06T04:26:38;16.80;;;5.18;;
59512;SDS011;45330;51.634;5.562;2022-07-06T04:29:03;15.07;;;5.50;;
59512;SDS011;45330;51.634;5.562;2022-07-06T04:31:28;14.23;;;5.22;;
59512;SDS011;45330;51.634;5.562;2022-07-06T04:33:54;13.05;;;4.93;;
59512;SDS011;45330;51.634;5.562;2022-07-06T04:36:19;14.27;;;4.97;;
59512;SDS011;45330;51.634;5.562;2022-07-06T04:38:44;17.30;;;5.80;;
59512;SDS011;45330;51.634;5.562;2022-07-06T04:41:12;13.35;;;5.03;;
59512;SDS011;45330;51.634;5.562;2022-07-06T04:43:38;13.30;;;5.38;;
59512;SDS011;45330;51.634;5.562;2022-07-06T04:46:03;15.40;;;5.35;;
59512;SDS011;45330;51.634;5.562;2022-07-06T04:48:30;17.58;;;6.10;;
59512;SDS011;45330;51.634;5.562;2022-07-06T04:50:57;15.05;;;5.22;;
59512;SDS011;45330;51.634;5.562;2022-07-06T04:53:22;16.27;;;5.45;;
59512;SDS011;45330;51.634;5.562;2022-07-06T04:55:47;15.25;;;5.28;;
59512;SDS011;45330;51.634;5.562;2022-07-06T04:58:13;13.35;;;4.93;;
59512;SDS011;45330;51.634;5.562;2022-07-06T05:00:38;15.55;;;5.00;;
59512;SDS011;45330;51.634;5.562;2022-07-06T05:03:04;14.23;;;5.15;;
59512;SDS011;45330;51.634;5.562;2022-07-06T05:05:29;15.25;;;4.93;;
59512;SDS011;45330;51.634;5.562;2022-07-06T05:07:55;12.98;;;5.00;;
59512;SDS011;45330;51.634;5.562;2022-07-06T05:10:20;13.00;;;4.68;;
59512;SDS011;45330;51.634;5.562;2022-07-06T05:12:46;17.40;;;5.30;;
59512;SDS011;45330;51.634;5.562;2022-07-06T05:15:11;13.40;;;4.95;;
59512;SDS011;45330;51.634;5.562;2022-07-06T05:17:36;12.82;;;4.60;;
59512;SDS011;45330;51.634;5.562;2022-07-06T05:20:02;15.00;;;4.97;;
59512;SDS011;45330;51.634;5.562;2022-07-06T05:22:28;10.77;;;4.53;;
59512;SDS011;45330;51.634;5.562;2022-07-06T05:24:53;13.57;;;5.07;;
59512;SDS011;45330;51.634;5.562;2022-07-06T05:27:19;11.35;;;4.60;;
59512;SDS011;45330;51.634;5.562;2022-07-06T05:29:44;13.02;;;4.47;;
59512;SDS011;45330;51.634;5.562;2022-07-06T05:32:09;13.43;;;4.22;;
59512;SDS011;45330;51.634;5.562;2022-07-06T05:34:35;12.38;;;4.35;;
59512;SDS011;45330;51.634;5.562;2022-07-06T05:37:02;10.68;;;4.50;;
59512;SDS011;45330;51.634;5.562;2022-07-06T05:39:29;12.27;;;4.50;;
59512;SDS011;45330;51.634;5.562;2022-07-06T05:41:54;10.10;;;4.10;;
59512;SDS011;45330;51.634;5.562;2022-07-06T05:44:19;12.07;;;4.18;;
59512;SDS011;45330;51.634;5.562;2022-07-06T05:46:45;14.70;;;4.80;;
59512;SDS011;45330;51.634;5.562;2022-07-06T05:49:10;11.65;;;4.30;;
59512;SDS011;45330;51.634;5.562;2022-07-06T05:51:54;12.30;;;4.13;;
59512;SDS011;45330;51.634;5.562;2022-07-06T05:54:20;12.07;;;4.07;;
59512;SDS011;45330;51.634;5.562;2022-07-06T05:56:45;11.65;;;4.03;;
59512;SDS011;45330;51.634;5.562;2022-07-06T05:59:11;17.30;;;4.30;;
59512;SDS011;45330;51.634;5.562;2022-07-06T06:01:36;13.20;;;4.22;;
59512;SDS011;45330;51.634;5.562;2022-07-06T06:04:01;12.90;;;3.90;;
59512;SDS011;45330;51.634;5.562;2022-07-06T06:06:27;9.25;;;3.38;;
59512;SDS011;45330;51.634;5.562;2022-07-06T06:08:53;11.10;;;3.28;;
59512;SDS011;45330;51.634;5.562;2022-07-06T06:11:18;7.75;;;2.70;;
59512;SDS011;45330;51.634;5.562;2022-07-06T06:13:43;10.18;;;3.08;;
59512;SDS011;45330;51.634;5.562;2022-07-06T06:16:09;7.88;;;2.95;;
59512;SDS011;45330;51.634;5.562;2022-07-06T06:18:35;6.38;;;2.63;;
59512;SDS011;45330;51.634;5.562;2022-07-06T06:21:00;6.35;;;2.50;;
59512;SDS011;45330;51.634;5.562;2022-07-06T06:23:26;6.38;;;2.60;;
59512;SDS011;45330;51.634;5.562;2022-07-06T06:25:51;7.43;;;2.38;;
59512;SDS011;45330;51.634;5.562;2022-07-06T06:28:16;3.88;;;2.30;;
59512;SDS011;45330;51.634;5.562;2022-07-06T06:30:42;9.02;;;2.50;;
59512;SDS011;45330;51.634;5.562;2022-07-06T06:33:11;6.85;;;2.47;;
59512;SDS011;45330;51.634;5.562;2022-07-06T06:35:41;6.88;;;2.53;;
59512;SDS011;45330;51.634;5.562;2022-07-06T06:38:08;5.13;;;2.22;;
59512;SDS011;45330;51.634;5.562;2022-07-06T06:40:33;6.22;;;2.60;;
59512;SDS011;45330;51.634;5.562;2022-07-06T06:42:59;7.88;;;2.45;;
59512;SDS011;45330;51.634;5.562;2022-07-06T06:45:24;10.07;;;2.88;;
59512;SDS011;45330;51.634;5.562;2022-07-06T06:47:50;8.75;;;2.53;;
59512;SDS011;45330;51.634;5.562;2022-07-06T06:50:15;7.95;;;2.78;;
59512;SDS011;45330;51.634;5.562;2022-07-06T06:52:40;9.68;;;2.75;;
59512;SDS011;45330;51.634;5.562;2022-07-06T06:55:06;7.60;;;2.58;;
59512;SDS011;45330;51.634;5.562;2022-07-06T06:57:32;7.70;;;2.42;;
59512;SDS011;45330;51.634;5.562;2022-07-06T06:59:57;6.80;;;2.33;;
59512;SDS011;45330;51.634;5.562;2022-07-06T07:02:23;15.88;;;2.67;;
59512;SDS011;45330;51.634;5.562;2022-07-06T07:04:48;7.43;;;2.10;;
59512;SDS011;45330;51.634;5.562;2022-07-06T07:07:14;7.85;;;2.30;;
59512;SDS011;45330;51.634;5.562;2022-07-06T07:09:39;6.32;;;1.90;;
59512;SDS011;45330;51.634;5.562;2022-07-06T07:12:05;8.75;;;2.00;;
59512;SDS011;45330;51.634;5.562;2022-07-06T07:14:31;8.65;;;1.98;;
59512;SDS011;45330;51.634;5.562;2022-07-06T07:16:56;9.30;;;2.03;;
59512;SDS011;45330;51.634;5.562;2022-07-06T07:19:21;5.00;;;1.90;;
59512;SDS011;45330;51.634;5.562;2022-07-06T07:21:47;7.78;;;2.28;;
59512;SDS011;45330;51.634;5.562;2022-07-06T07:24:12;21.70;;;4.82;;
59512;SDS011;45330;51.634;5.562;2022-07-06T07:26:38;9.40;;;2.20;;
59512;SDS011;45330;51.634;5.562;2022-07-06T07:29:03;7.88;;;2.03;;
59512;SDS011;45330;51.634;5.562;2022-07-06T07:31:28;4.60;;;1.75;;
59512;SDS011;45330;51.634;5.562;2022-07-06T07:33:54;8.75;;;1.88;;
59512;SDS011;45330;51.634;5.562;2022-07-06T07:36:22;4.88;;;1.60;;
59512;SDS011;45330;51.634;5.562;2022-07-06T07:38:50;3.28;;;1.77;;
59512;SDS011;45330;51.634;5.562;2022-07-06T07:41:16;5.32;;;1.65;;
59512;SDS011;45330;51.634;5.562;2022-07-06T07:43:42;9.57;;;2.15;;
59512;SDS011;45330;51.634;5.562;2022-07-06T07:46:08;6.38;;;1.95;;
59512;SDS011;45330;51.634;5.562;2022-07-06T07:48:33;4.75;;;1.80;;
59512;SDS011;45330;51.634;5.562;2022-07-06T07:50:59;7.93;;;1.70;;
59512;SDS011;45330;51.634;5.562;2022-07-06T07:53:24;7.32;;;2.10;;
59512;SDS011;45330;51.634;5.562;2022-07-06T07:55:49;7.40;;;2.08;;
59512;SDS011;45330;51.634;5.562;2022-07-06T07:58:15;6.93;;;1.75;;
59512;SDS011;45330;51.634;5.562;2022-07-06T08:00:40;3.92;;;1.83;;
59512;SDS011;45330;51.634;5.562;2022-07-06T08:03:05;4.47;;;1.55;;
59512;SDS011;45330;51.634;5.562;2022-07-06T08:05:31;5.20;;;1.95;;
59512;SDS011;45330;51.634;5.562;2022-07-06T08:07:56;7.03;;;1.67;;
59512;SDS011;45330;51.634;5.562;2022-07-06T08:10:22;6.90;;;2.00;;
59512;SDS011;45330;51.634;5.562;2022-07-06T08:12:48;6.75;;;1.90;;
59512;SDS011;45330;51.634;5.562;2022-07-06T08:15:13;4.93;;;1.70;;
59512;SDS011;45330;51.634;5.562;2022-07-06T08:17:39;6.32;;;1.98;;
59512;SDS011;45330;51.634;5.562;2022-07-06T08:20:05;5.70;;;1.40;;
59512;SDS011;45330;51.634;5.562;2022-07-06T08:22:31;2.88;;;1.20;;
59512;SDS011;45330;51.634;5.562;2022-07-06T08:24:56;5.65;;;1.63;;
59512;SDS011;45330;51.634;5.562;2022-07-06T08:27:22;6.38;;;1.67;;
59512;SDS011;45330;51.634;5.562;2022-07-06T08:29:49;4.43;;;1.65;;
59512;SDS011;45330;51.634;5.562;2022-07-06T08:32:15;4.10;;;1.38;;
59512;SDS011;45330;51.634;5.562;2022-07-06T08:34:40;6.05;;;1.45;;
59512;SDS011;45330;51.634;5.562;2022-07-06T08:37:08;6.28;;;1.30;;
59512;SDS011;45330;51.634;5.562;2022-07-06T08:39:33;8.43;;;1.83;;
59512;SDS011;45330;51.634;5.562;2022-07-06T08:41:59;3.80;;;1.50;;
59512;SDS011;45330;51.634;5.562;2022-07-06T08:44:25;5.50;;;1.55;;
59512;SDS011;45330;51.634;5.562;2022-07-06T08:46:51;5.50;;;1.60;;
59512;SDS011;45330;51.634;5.562;2022-07-06T08:49:17;3.63;;;1.30;;
59512;SDS011;45330;51.634;5.562;2022-07-06T08:51:43;4.10;;;1.40;;
59512;SDS011;45330;51.634;5.562;2022-07-06T08:54:10;9.55;;;1.52;;
59512;SDS011;45330;51.634;5.562;2022-07-06T08:56:36;2.47;;;0.98;;
59512;SDS011;45330;51.634;5.562;2022-07-06T08:59:02;7.88;;;1.58;;
59512;SDS011;45330;51.634;5.562;2022-07-06T09:01:28;8.73;;;1.25;;
59512;SDS011;45330;51.634;5.562;2022-07-06T09:03:54;4.57;;;1.25;;
59512;SDS011;45330;51.634;5.562;2022-07-06T09:06:24;6.15;;;1.38;;
59512;SDS011;45330;51.634;5.562;2022-07-06T09:08:52;3.10;;;1.23;;
59512;SDS011;45330;51.634;5.562;2022-07-06T09:11:21;3.13;;;1.30;;
59512;SDS011;45330;51.634;5.562;2022-07-06T09:13:47;4.22;;;1.30;;
59512;SDS011;45330;51.634;5.562;2022-07-06T09:16:14;5.78;;;1.23;;
59512;SDS011;45330;51.634;5.562;2022-07-06T09:18:44;5.78;;;1.23;;
59512;SDS011;45330;51.634;5.562;2022-07-06T09:21:10;3.53;;;1.10;;
59512;SDS011;45330;51.634;5.562;2022-07-06T09:23:36;3.70;;;1.13;;
59512;SDS011;45330;51.634;5.562;2022-07-06T09:26:03;2.60;;;1.20;;
59512;SDS011;45330;51.634;5.562;2022-07-06T09:28:43;6.50;;;1.33;;
59512;SDS011;45330;51.634;5.562;2022-07-06T09:31:09;5.15;;;1.00;;
59512;SDS011;45330;51.634;5.562;2022-07-06T09:33:35;4.35;;;1.30;;
59512;SDS011;45330;51.634;5.562;2022-07-06T09:36:01;5.45;;;1.50;;
59512;SDS011;45330;51.634;5.562;2022-07-06T09:38:27;5.65;;;1.48;;
59512;SDS011;45330;51.634;5.562;2022-07-06T09:40:53;6.60;;;1.20;;
59512;SDS011;45330;51.634;5.562;2022-07-06T09:43:20;5.00;;;1.00;;
59512;SDS011;45330;51.634;5.562;2022-07-06T09:45:51;5.03;;;1.20;;
59512;SDS011;45330;51.634;5.562;2022-07-06T09:48:18;4.90;;;1.00;;
59512;SDS011;45330;51.634;5.562;2022-07-06T09:50:48;2.38;;;1.05;;
59512;SDS011;45330;51.634;5.562;2022-07-06T09:53:18;3.38;;;1.05;;
59512;SDS011;45330;51.634;5.562;2022-07-06T09:55:49;4.72;;;0.80;;
59512;SDS011;45330;51.634;5.562;2022-07-06T10:00:42;17.10;;;2.00;;
59512;SDS011;45330;51.634;5.562;2022-07-06T10:03:08;5.97;;;0.95;;
59512;SDS011;45330;51.634;5.562;2022-07-06T10:05:38;3.75;;;1.00;;
59512;SDS011;45330;51.634;5.562;2022-07-06T10:08:07;3.38;;;1.08;;
59512;SDS011;45330;51.634;5.562;2022-07-06T10:10:36;3.20;;;1.15;;
59512;SDS011;45330;51.634;5.562;2022-07-06T10:13:03;2.72;;;0.98;;
59512;SDS011;45330;51.634;5.562;2022-07-06T10:15:33;4.53;;;1.00;;
59512;SDS011;45330;51.634;5.562;2022-07-06T10:18:00;7.53;;;1.45;;
59512;SDS011;45330;51.634;5.562;2022-07-06T10:20:30;5.93;;;1.10;;
59512;SDS011;45330;51.634;5.562;2022-07-06T10:22:59;4.30;;;1.17;;
59512;SDS011;45330;51.634;5.562;2022-07-06T10:25:27;6.53;;;1.15;;
59512;SDS011;45330;51.634;5.562;2022-07-06T10:27:53;5.78;;;1.52;;
59512;SDS011;45330;51.634;5.562;2022-07-06T10:30:19;3.45;;;1.20;;
59512;SDS011;45330;51.634;5.562;2022-07-06T10:32:45;2.20;;;0.90;;
59512;SDS011;45330;51.634;5.562;2022-07-06T10:35:15;5.50;;;1.20;;
59512;SDS011;45330;51.634;5.562;2022-07-06T10:37:42;6.72;;;1.15;;
59512;SDS011;45330;51.634;5.562;2022-07-06T10:40:07;4.47;;;1.13;;
59512;SDS011;45330;51.634;5.562;2022-07-06T10:42:56;6.45;;;1.40;;
59512;SDS011;45330;51.634;5.562;2022-07-06T10:48:15;3.50;;;1.00;;
59512;SDS011;45330;51.634;5.562;2022-07-06T10:50:50;3.58;;;1.00;;
59512;SDS011;45330;51.634;5.562;2022-07-06T10:53:27;3.80;;;0.93;;
59512;SDS011;45330;51.634;5.562;2022-07-06T10:55:54;4.15;;;1.05;;
59512;SDS011;45330;51.634;5.562;2022-07-06T10:58:37;2.22;;;0.80;;
59512;SDS011;45330;51.634;5.562;2022-07-06T11:01:13;5.20;;;1.25;;
59512;SDS011;45330;51.634;5.562;2022-07-06T11:03:41;5.65;;;1.27;;
59512;SDS011;45330;51.634;5.562;2022-07-06T11:06:31;4.78;;;1.10;;
59512;SDS011;45330;51.634;5.562;2022-07-06T11:09:04;3.58;;;1.05;;
59512;SDS011;45330;51.634;5.562;2022-07-06T11:14:01;4.30;;;1.15;;
59512;SDS011;45330;51.634;5.562;2022-07-06T11:16:36;9.48;;;1.30;;
59512;SDS011;45330;51.634;5.562;2022-07-06T11:19:28;4.00;;;1.30;;
59512;SDS011;45330;51.634;5.562;2022-07-06T11:21:55;5.38;;;1.00;;
59512;SDS011;45330;51.634;5.562;2022-07-06T11:24:29;3.63;;;0.93;;
59512;SDS011;45330;51.634;5.562;2022-07-06T11:26:56;1.30;;;1.10;;
59512;SDS011;45330;51.634;5.562;2022-07-06T11:29:23;6.15;;;1.10;;
59512;SDS011;45330;51.634;5.562;2022-07-06T11:31:50;2.40;;;0.95;;
59512;SDS011;45330;51.634;5.562;2022-07-06T11:34:27;1.88;;;1.02;;
59512;SDS011;45330;51.634;5.562;2022-07-06T11:36:55;3.47;;;1.00;;
59512;SDS011;45330;51.634;5.562;2022-07-06T11:39:29;4.57;;;1.33;;
59512;SDS011;45330;51.634;5.562;2022-07-06T11:41:56;1.33;;;0.85;;
59512;SDS011;45330;51.634;5.562;2022-07-06T11:44:22;4.80;;;1.10;;
59512;SDS011;45330;51.634;5.562;2022-07-06T11:46:47;4.72;;;1.25;;
59512;SDS011;45330;51.634;5.562;2022-07-06T11:49:14;3.78;;;1.15;;
59512;SDS011;45330;51.634;5.562;2022-07-06T11:51:40;1.15;;;1.05;;
59512;SDS011;45330;51.634;5.562;2022-07-06T11:54:10;4.10;;;1.13;;
59512;SDS011;45330;51.634;5.562;2022-07-06T11:56:37;3.78;;;1.30;;
59512;SDS011;45330;51.634;5.562;2022-07-06T11:59:10;3.17;;;1.02;;
59512;SDS011;45330;51.634;5.562;2022-07-06T12:01:35;2.72;;;1.13;;
59512;SDS011;45330;51.634;5.562;2022-07-06T12:04:06;4.38;;;1.45;;
59512;SDS011;45330;51.634;5.562;2022-07-06T12:06:32;2.65;;;1.10;;
59512;SDS011;45330;51.634;5.562;2022-07-06T12:08:59;3.47;;;1.23;;
59512;SDS011;45330;51.634;5.562;2022-07-06T12:11:32;3.42;;;1.00;;
59512;SDS011;45330;51.634;5.562;2022-07-06T12:14:00;3.40;;;1.30;;
59512;SDS011;45330;51.634;5.562;2022-07-06T12:16:31;4.80;;;1.13;;
59512;SDS011;45330;51.634;5.562;2022-07-06T12:18:59;4.03;;;1.17;;
59512;SDS011;45330;51.634;5.562;2022-07-06T12:21:26;6.72;;;1.40;;
59512;SDS011;45330;51.634;5.562;2022-07-06T12:23:52;4.85;;;1.27;;
59512;SDS011;45330;51.634;5.562;2022-07-06T12:26:19;4.70;;;1.38;;
59512;SDS011;45330;51.634;5.562;2022-07-06T12:29:11;7.30;;;1.42;;
59512;SDS011;45330;51.634;5.562;2022-07-06T12:31:43;2.35;;;1.00;;
59512;SDS011;45330;51.634;5.562;2022-07-06T12:34:15;5.57;;;1.50;;
59512;SDS011;45330;51.634;5.562;2022-07-06T12:36:51;3.72;;;1.15;;
59512;SDS011;45330;51.634;5.562;2022-07-06T12:39:22;2.40;;;0.95;;
59512;SDS011;45330;51.634;5.562;2022-07-06T12:41:53;4.13;;;1.05;;
59512;SDS011;45330;51.634;5.562;2022-07-06T12:44:24;3.50;;;1.27;;
59512;SDS011;45330;51.634;5.562;2022-07-06T12:46:50;3.30;;;1.40;;
59512;SDS011;45330;51.634;5.562;2022-07-06T12:49:27;4.47;;;1.30;;
59512;SDS011;45330;51.634;5.562;2022-07-06T12:51:59;7.97;;;1.45;;
59512;SDS011;45330;51.634;5.562;2022-07-06T12:54:35;2.72;;;0.98;;
59512;SDS011;45330;51.634;5.562;2022-07-06T12:59:40;3.35;;;1.02;;
59512;SDS011;45330;51.634;5.562;2022-07-06T13:07:21;2.60;;;0.95;;
59512;SDS011;45330;51.634;5.562;2022-07-06T13:09:47;2.00;;;0.95;;
59512;SDS011;45330;51.634;5.562;2022-07-06T13:12:13;3.72;;;1.17;;
59512;SDS011;45330;51.634;5.562;2022-07-06T13:14:38;4.00;;;1.20;;
59512;SDS011;45330;51.634;5.562;2022-07-06T13:17:03;2.45;;;1.00;;
59512;SDS011;45330;51.634;5.562;2022-07-06T13:19:29;4.82;;;1.23;;
59512;SDS011;45330;51.634;5.562;2022-07-06T13:21:54;1.85;;;0.82;;
59512;SDS011;45330;51.634;5.562;2022-07-06T13:24:20;3.92;;;1.10;;
59512;SDS011;45330;51.634;5.562;2022-07-06T13:26:45;5.53;;;1.33;;
59512;SDS011;45330;51.634;5.562;2022-07-06T13:29:11;5.68;;;1.13;;
59512;SDS011;45330;51.634;5.562;2022-07-06T13:31:38;2.33;;;0.98;;
59512;SDS011;45330;51.634;5.562;2022-07-06T13:34:04;5.45;;;1.00;;
59512;SDS011;45330;51.634;5.562;2022-07-06T13:36:30;2.58;;;1.00;;
59512;SDS011;45330;51.634;5.562;2022-07-06T13:38:56;5.55;;;1.38;;
59512;SDS011;45330;51.634;5.562;2022-07-06T13:41:21;2.72;;;1.00;;
59512;SDS011;45330;51.634;5.562;2022-07-06T13:43:47;2.65;;;1.02;;
59512;SDS011;45330;51.634;5.562;2022-07-06T13:46:12;3.70;;;1.10;;
59512;SDS011;45330;51.634;5.562;2022-07-06T13:48:37;3.10;;;1.20;;
59512;SDS011;45330;51.634;5.562;2022-07-06T13:51:03;4.32;;;1.33;;
59512;SDS011;45330;51.634;5.562;2022-07-06T13:53:29;2.05;;;1.23;;
59512;SDS011;45330;51.634;5.562;2022-07-06T13:55:56;2.55;;;1.00;;
59512;SDS011;45330;51.634;5.562;2022-07-06T13:58:22;2.88;;;1.10;;
59512;SDS011;45330;51.634;5.562;2022-07-06T14:00:47;7.07;;;1.50;;
59512;SDS011;45330;51.634;5.562;2022-07-06T14:03:12;3.83;;;1.30;;
59512;SDS011;45330;51.634;5.562;2022-07-06T14:05:38;5.13;;;1.90;;
59512;SDS011;45330;51.634;5.562;2022-07-06T14:08:03;5.22;;;1.40;;
59512;SDS011;45330;51.634;5.562;2022-07-06T14:10:29;4.97;;;1.33;;
59512;SDS011;45330;51.634;5.562;2022-07-06T14:12:54;4.20;;;1.40;;
59512;SDS011;45330;51.634;5.562;2022-07-06T14:15:20;4.13;;;1.55;;
59512;SDS011;45330;51.634;5.562;2022-07-06T14:17:45;4.30;;;1.38;;
59512;SDS011;45330;51.634;5.562;2022-07-06T14:20:14;8.45;;;1.48;;
59512;SDS011;45330;51.634;5.562;2022-07-06T14:22:40;5.60;;;1.52;;
59512;SDS011;45330;51.634;5.562;2022-07-06T14:25:05;6.15;;;1.23;;
59512;SDS011;45330;51.634;5.562;2022-07-06T14:27:32;8.77;;;1.55;;
59512;SDS011;45330;51.634;5.562;2022-07-06T14:29:58;6.63;;;1.80;;
59512;SDS011;45330;51.634;5.562;2022-07-06T14:32:23;8.85;;;1.88;;
59512;SDS011;45330;51.634;5.562;2022-07-06T14:34:49;3.92;;;1.73;;
59512;SDS011;45330;51.634;5.562;2022-07-06T14:37:14;5.35;;;1.63;;
59512;SDS011;45330;51.634;5.562;2022-07-06T14:39:39;6.72;;;1.90;;
59512;SDS011;45330;51.634;5.562;2022-07-06T14:42:05;6.15;;;1.60;;
59512;SDS011;45330;51.634;5.562;2022-07-06T14:44:30;5.93;;;1.48;;
59512;SDS011;45330;51.634;5.562;2022-07-06T14:46:56;5.18;;;1.70;;
59512;SDS011;45330;51.634;5.562;2022-07-06T14:49:21;4.68;;;1.60;;
59512;SDS011;45330;51.634;5.562;2022-07-06T14:51:47;3.97;;;1.92;;
59512;SDS011;45330;51.634;5.562;2022-07-06T14:54:13;5.70;;;1.60;;
59512;SDS011;45330;51.634;5.562;2022-07-06T14:56:38;6.55;;;1.88;;
59512;SDS011;45330;51.634;5.562;2022-07-06T14:59:04;6.85;;;1.98;;